Terminal Aerodrome Forecast
Issued by NWS

Current Version | Previous Version | Text Only | Print | Product List | Glossary On
Versions: 1 2 3 4 5 6 7 8 9 10 11 12 13 14 15 16 17 18 19
000
FTUS44 KBMX 021015 AAA
TAFANB
TAF AMD
KANB 021015Z 0210/0306 VRB03KT P6SM SCT050 SCT250
      TEMPO 0210/0213 5SM BR
     FM021800 VRB03KT P6SM BKN050=

USA.gov is the U.S. government's official web portal to all federal, state and local government web resources and services.